sensor_id;sensor_type;location;lat;lon;timestamp;P1;durP1;ratioP1;P2;durP2;ratioP2
45534;SDS011;35892;48.798;9.698;2022-08-24T00:02:02;3.88;;;3.00;;
45534;SDS011;35892;48.798;9.698;2022-08-24T00:04:30;4.80;;;3.50;;
45534;SDS011;35892;48.798;9.698;2022-08-24T00:06:58;5.53;;;3.38;;
45534;SDS011;35892;48.798;9.698;2022-08-24T00:09:29;3.58;;;3.25;;
45534;SDS011;35892;48.798;9.698;2022-08-24T00:12:01;4.57;;;3.80;;
45534;SDS011;35892;48.798;9.698;2022-08-24T00:14:32;4.05;;;2.90;;
45534;SDS011;35892;48.798;9.698;2022-08-24T00:17:00;4.85;;;3.40;;
45534;SDS011;35892;48.798;9.698;2022-08-24T00:19:27;4.03;;;3.58;;
45534;SDS011;35892;48.798;9.698;2022-08-24T00:21:54;4.47;;;3.17;;
45534;SDS011;35892;48.798;9.698;2022-08-24T00:24:23;4.32;;;3.80;;
45534;SDS011;35892;48.798;9.698;2022-08-24T00:26:50;4.82;;;3.63;;
45534;SDS011;35892;48.798;9.698;2022-08-24T00:29:17;4.63;;;3.95;;
45534;SDS011;35892;48.798;9.698;2022-08-24T00:31:47;4.97;;;3.70;;
45534;SDS011;35892;48.798;9.698;2022-08-24T00:34:15;4.28;;;3.58;;
45534;SDS011;35892;48.798;9.698;2022-08-24T00:36:45;4.47;;;3.50;;
45534;SDS011;35892;48.798;9.698;2022-08-24T00:39:13;4.55;;;4.07;;
45534;SDS011;35892;48.798;9.698;2022-08-24T00:41:43;6.13;;;4.68;;
45534;SDS011;35892;48.798;9.698;2022-08-24T00:44:15;5.35;;;3.70;;
45534;SDS011;35892;48.798;9.698;2022-08-24T00:54:29;4.63;;;3.50;;
45534;SDS011;35892;48.798;9.698;2022-08-24T00:56:59;7.18;;;3.78;;
45534;SDS011;35892;48.798;9.698;2022-08-24T00:59:33;3.40;;;3.10;;
45534;SDS011;35892;48.798;9.698;2022-08-24T01:02:10;3.20;;;2.90;;
45534;SDS011;35892;48.798;9.698;2022-08-24T01:04:51;5.82;;;4.00;;
45534;SDS011;35892;48.798;9.698;2022-08-24T01:07:24;3.70;;;3.22;;
45534;SDS011;35892;48.798;9.698;2022-08-24T01:09:53;4.00;;;3.60;;
45534;SDS011;35892;48.798;9.698;2022-08-24T01:12:23;6.32;;;4.47;;
45534;SDS011;35892;48.798;9.698;2022-08-24T01:14:52;3.78;;;3.45;;
45534;SDS011;35892;48.798;9.698;2022-08-24T01:17:19;4.18;;;3.50;;
45534;SDS011;35892;48.798;9.698;2022-08-24T01:20:06;4.43;;;4.03;;
45534;SDS011;35892;48.798;9.698;2022-08-24T01:26:01;4.35;;;3.50;;
45534;SDS011;35892;48.798;9.698;2022-08-24T01:28:29;4.20;;;3.67;;
45534;SDS011;35892;48.798;9.698;2022-08-24T01:30:57;5.32;;;3.75;;
45534;SDS011;35892;48.798;9.698;2022-08-24T01:33:27;4.63;;;3.53;;
45534;SDS011;35892;48.798;9.698;2022-08-24T01:36:03;6.18;;;3.80;;
45534;SDS011;35892;48.798;9.698;2022-08-24T01:38:33;5.03;;;3.67;;
45534;SDS011;35892;48.798;9.698;2022-08-24T01:41:03;5.63;;;3.83;;
45534;SDS011;35892;48.798;9.698;2022-08-24T01:43:30;4.00;;;3.60;;
45534;SDS011;35892;48.798;9.698;2022-08-24T01:46:02;4.60;;;4.10;;
45534;SDS011;35892;48.798;9.698;2022-08-24T01:48:31;4.72;;;3.70;;
45534;SDS011;35892;48.798;9.698;2022-08-24T01:50:58;4.20;;;3.78;;
45534;SDS011;35892;48.798;9.698;2022-08-24T01:53:25;3.83;;;3.25;;
45534;SDS011;35892;48.798;9.698;2022-08-24T01:55:52;5.70;;;4.28;;
45534;SDS011;35892;48.798;9.698;2022-08-24T01:58:19;4.10;;;3.70;;
45534;SDS011;35892;48.798;9.698;2022-08-24T02:00:45;4.07;;;3.70;;
45534;SDS011;35892;48.798;9.698;2022-08-24T02:03:12;4.57;;;3.53;;
45534;SDS011;35892;48.798;9.698;2022-08-24T02:05:42;5.05;;;3.72;;
45534;SDS011;35892;48.798;9.698;2022-08-24T02:08:09;4.75;;;3.95;;
45534;SDS011;35892;48.798;9.698;2022-08-24T02:10:36;4.00;;;3.60;;
45534;SDS011;35892;48.798;9.698;2022-08-24T02:13:03;4.22;;;3.70;;
45534;SDS011;35892;48.798;9.698;2022-08-24T02:15:31;6.07;;;4.32;;
45534;SDS011;35892;48.798;9.698;2022-08-24T02:18:06;4.30;;;3.90;;
45534;SDS011;35892;48.798;9.698;2022-08-24T02:20:40;4.30;;;3.90;;
45534;SDS011;35892;48.798;9.698;2022-08-24T02:23:12;5.40;;;4.13;;
45534;SDS011;35892;48.798;9.698;2022-08-24T02:25:39;4.20;;;3.80;;
45534;SDS011;35892;48.798;9.698;2022-08-24T02:28:06;3.90;;;3.50;;
45534;SDS011;35892;48.798;9.698;2022-08-24T02:30:33;5.53;;;4.40;;
45534;SDS011;35892;48.798;9.698;2022-08-24T02:33:02;5.10;;;4.32;;
45534;SDS011;35892;48.798;9.698;2022-08-24T02:35:31;4.88;;;3.70;;
45534;SDS011;35892;48.798;9.698;2022-08-24T02:37:58;5.63;;;3.47;;
45534;SDS011;35892;48.798;9.698;2022-08-24T02:40:27;4.70;;;4.03;;
45534;SDS011;35892;48.798;9.698;2022-08-24T02:42:54;4.55;;;4.10;;
45534;SDS011;35892;48.798;9.698;2022-08-24T02:45:21;5.13;;;4.10;;
45534;SDS011;35892;48.798;9.698;2022-08-24T02:47:49;4.97;;;4.10;;
45534;SDS011;35892;48.798;9.698;2022-08-24T02:50:19;6.13;;;4.25;;
45534;SDS011;35892;48.798;9.698;2022-08-24T02:52:46;5.00;;;4.00;;
45534;SDS011;35892;48.798;9.698;2022-08-24T02:55:19;8.15;;;4.78;;
45534;SDS011;35892;48.798;9.698;2022-08-24T02:57:46;4.38;;;3.97;;
45534;SDS011;35892;48.798;9.698;2022-08-24T03:00:16;4.65;;;3.97;;
45534;SDS011;35892;48.798;9.698;2022-08-24T03:02:44;5.15;;;4.32;;
45534;SDS011;35892;48.798;9.698;2022-08-24T03:05:11;4.63;;;4.00;;
45534;SDS011;35892;48.798;9.698;2022-08-24T03:07:39;5.75;;;4.68;;
45534;SDS011;35892;48.798;9.698;2022-08-24T03:10:06;8.52;;;4.72;;
45534;SDS011;35892;48.798;9.698;2022-08-24T03:12:35;5.25;;;4.75;;
45534;SDS011;35892;48.798;9.698;2022-08-24T03:15:03;5.07;;;4.18;;
45534;SDS011;35892;48.798;9.698;2022-08-24T03:17:35;4.63;;;3.90;;
45534;SDS011;35892;48.798;9.698;2022-08-24T03:20:07;6.05;;;4.97;;
45534;SDS011;35892;48.798;9.698;2022-08-24T03:22:42;5.60;;;4.60;;
45534;SDS011;35892;48.798;9.698;2022-08-24T03:25:16;4.70;;;4.30;;
45534;SDS011;35892;48.798;9.698;2022-08-24T03:27:46;5.07;;;4.55;;
45534;SDS011;35892;48.798;9.698;2022-08-24T03:30:15;5.68;;;4.88;;
45534;SDS011;35892;48.798;9.698;2022-08-24T03:32:43;5.50;;;4.85;;
45534;SDS011;35892;48.798;9.698;2022-08-24T03:35:10;5.18;;;4.68;;
45534;SDS011;35892;48.798;9.698;2022-08-24T03:37:38;8.70;;;4.80;;
45534;SDS011;35892;48.798;9.698;2022-08-24T03:40:06;5.60;;;3.70;;
45534;SDS011;35892;48.798;9.698;2022-08-24T03:42:49;5.88;;;4.47;;
45534;SDS011;35892;48.798;9.698;2022-08-24T03:45:17;5.65;;;4.10;;
45534;SDS011;35892;48.798;9.698;2022-08-24T03:47:44;5.28;;;3.17;;
45534;SDS011;35892;48.798;9.698;2022-08-24T03:50:12;5.05;;;3.47;;
45534;SDS011;35892;48.798;9.698;2022-08-24T03:52:39;6.68;;;4.45;;
45534;SDS011;35892;48.798;9.698;2022-08-24T03:55:07;5.82;;;4.40;;
45534;SDS011;35892;48.798;9.698;2022-08-24T03:57:34;5.22;;;4.10;;
45534;SDS011;35892;48.798;9.698;2022-08-24T04:00:02;4.57;;;4.18;;
45534;SDS011;35892;48.798;9.698;2022-08-24T04:02:31;4.03;;;3.38;;
45534;SDS011;35892;48.798;9.698;2022-08-24T04:04:58;4.47;;;3.47;;
45534;SDS011;35892;48.798;9.698;2022-08-24T04:07:29;4.30;;;3.90;;
45534;SDS011;35892;48.798;9.698;2022-08-24T04:09:56;5.38;;;4.35;;
45534;SDS011;35892;48.798;9.698;2022-08-24T04:12:27;6.53;;;4.10;;
45534;SDS011;35892;48.798;9.698;2022-08-24T04:14:54;4.82;;;4.38;;
45534;SDS011;35892;48.798;9.698;2022-08-24T04:17:21;4.15;;;3.75;;
45534;SDS011;35892;48.798;9.698;2022-08-24T04:19:48;5.18;;;3.92;;
45534;SDS011;35892;48.798;9.698;2022-08-24T04:22:24;4.85;;;3.70;;
45534;SDS011;35892;48.798;9.698;2022-08-24T04:24:53;4.30;;;3.90;;
45534;SDS011;35892;48.798;9.698;2022-08-24T04:27:22;4.45;;;3.83;;
45534;SDS011;35892;48.798;9.698;2022-08-24T04:29:54;5.63;;;4.95;;
45534;SDS011;35892;48.798;9.698;2022-08-24T04:32:21;5.72;;;4.05;;
45534;SDS011;35892;48.798;9.698;2022-08-24T04:34:48;4.70;;;4.30;;
45534;SDS011;35892;48.798;9.698;2022-08-24T04:37:14;4.45;;;4.00;;
45534;SDS011;35892;48.798;9.698;2022-08-24T04:39:47;5.15;;;3.88;;
45534;SDS011;35892;48.798;9.698;2022-08-24T04:42:17;4.75;;;4.35;;
45534;SDS011;35892;48.798;9.698;2022-08-24T04:44:45;6.10;;;4.22;;
45534;SDS011;35892;48.798;9.698;2022-08-24T04:47:14;4.97;;;4.30;;
45534;SDS011;35892;48.798;9.698;2022-08-24T04:49:40;4.40;;;3.63;;
45534;SDS011;35892;48.798;9.698;2022-08-24T04:52:07;6.55;;;4.35;;
45534;SDS011;35892;48.798;9.698;2022-08-24T04:54:36;5.13;;;4.30;;
45534;SDS011;35892;48.798;9.698;2022-08-24T04:57:03;4.63;;;3.60;;
45534;SDS011;35892;48.798;9.698;2022-08-24T04:59:30;6.65;;;3.90;;
45534;SDS011;35892;48.798;9.698;2022-08-24T05:01:59;5.07;;;4.00;;
45534;SDS011;35892;48.798;9.698;2022-08-24T05:04:28;4.38;;;3.97;;
45534;SDS011;35892;48.798;9.698;2022-08-24T05:07:00;6.18;;;4.10;;
45534;SDS011;35892;48.798;9.698;2022-08-24T05:09:29;5.28;;;3.97;;
45534;SDS011;35892;48.798;9.698;2022-08-24T05:11:56;6.65;;;4.03;;
45534;SDS011;35892;48.798;9.698;2022-08-24T05:14:23;5.38;;;3.67;;
45534;SDS011;35892;48.798;9.698;2022-08-24T05:16:54;5.65;;;4.10;;
45534;SDS011;35892;48.798;9.698;2022-08-24T05:19:21;4.28;;;3.53;;
45534;SDS011;35892;48.798;9.698;2022-08-24T05:21:49;4.13;;;3.60;;
45534;SDS011;35892;48.798;9.698;2022-08-24T05:24:16;4.38;;;3.97;;
45534;SDS011;35892;48.798;9.698;2022-08-24T05:26:44;5.82;;;3.90;;
45534;SDS011;35892;48.798;9.698;2022-08-24T05:29:12;4.30;;;3.90;;
45534;SDS011;35892;48.798;9.698;2022-08-24T05:31:42;4.97;;;4.47;;
45534;SDS011;35892;48.798;9.698;2022-08-24T05:34:14;4.60;;;4.15;;
45534;SDS011;35892;48.798;9.698;2022-08-24T05:36:41;6.85;;;5.18;;
45534;SDS011;35892;48.798;9.698;2022-08-24T05:39:11;4.78;;;4.28;;
45534;SDS011;35892;48.798;9.698;2022-08-24T05:41:42;5.03;;;4.18;;
45534;SDS011;35892;48.798;9.698;2022-08-24T05:44:10;4.90;;;3.65;;
45534;SDS011;35892;48.798;9.698;2022-08-24T05:46:41;5.80;;;4.57;;
45534;SDS011;35892;48.798;9.698;2022-08-24T05:49:08;4.50;;;3.97;;
45534;SDS011;35892;48.798;9.698;2022-08-24T05:51:36;6.68;;;4.07;;
45534;SDS011;35892;48.798;9.698;2022-08-24T05:54:05;7.05;;;4.90;;
45534;SDS011;35892;48.798;9.698;2022-08-24T05:56:32;8.48;;;7.38;;
45534;SDS011;35892;48.798;9.698;2022-08-24T05:58:59;6.85;;;6.15;;
45534;SDS011;35892;48.798;9.698;2022-08-24T06:01:26;6.45;;;4.32;;
45534;SDS011;35892;48.798;9.698;2022-08-24T06:03:56;4.60;;;3.85;;
45534;SDS011;35892;48.798;9.698;2022-08-24T06:06:24;6.63;;;4.90;;
45534;SDS011;35892;48.798;9.698;2022-08-24T06:08:55;9.32;;;4.28;;
45534;SDS011;35892;48.798;9.698;2022-08-24T06:13:57;4.40;;;4.00;;
45534;SDS011;35892;48.798;9.698;2022-08-24T06:16:33;5.57;;;4.00;;
45534;SDS011;35892;48.798;9.698;2022-08-24T06:19:02;4.75;;;3.88;;
45534;SDS011;35892;48.798;9.698;2022-08-24T06:21:32;5.07;;;3.92;;
45534;SDS011;35892;48.798;9.698;2022-08-24T06:24:01;4.93;;;4.18;;
45534;SDS011;35892;48.798;9.698;2022-08-24T06:26:31;6.55;;;4.05;;
45534;SDS011;35892;48.798;9.698;2022-08-24T06:29:18;4.95;;;4.25;;
45534;SDS011;35892;48.798;9.698;2022-08-24T06:31:46;6.25;;;4.90;;
45534;SDS011;35892;48.798;9.698;2022-08-24T06:34:20;7.47;;;4.68;;
45534;SDS011;35892;48.798;9.698;2022-08-24T06:36:47;4.90;;;3.80;;
45534;SDS011;35892;48.798;9.698;2022-08-24T06:39:18;5.33;;;3.83;;
45534;SDS011;35892;48.798;9.698;2022-08-24T06:41:45;5.43;;;3.90;;
45534;SDS011;35892;48.798;9.698;2022-08-24T06:44:15;4.38;;;3.50;;
45534;SDS011;35892;48.798;9.698;2022-08-24T06:46:44;4.40;;;3.65;;
45534;SDS011;35892;48.798;9.698;2022-08-24T06:49:10;4.68;;;4.07;;
45534;SDS011;35892;48.798;9.698;2022-08-24T06:51:37;6.03;;;3.90;;
45534;SDS011;35892;48.798;9.698;2022-08-24T06:54:04;4.88;;;3.45;;
45534;SDS011;35892;48.798;9.698;2022-08-24T06:56:31;4.93;;;3.60;;
45534;SDS011;35892;48.798;9.698;2022-08-24T06:59:00;6.68;;;3.95;;
45534;SDS011;35892;48.798;9.698;2022-08-24T07:01:30;4.82;;;3.67;;
45534;SDS011;35892;48.798;9.698;2022-08-24T07:04:00;4.00;;;3.60;;
45534;SDS011;35892;48.798;9.698;2022-08-24T07:06:27;6.70;;;3.70;;
45534;SDS011;35892;48.798;9.698;2022-08-24T07:08:54;3.85;;;3.35;;
45534;SDS011;35892;48.798;9.698;2022-08-24T07:11:24;6.00;;;3.97;;
45534;SDS011;35892;48.798;9.698;2022-08-24T07:13:50;5.32;;;3.20;;
45534;SDS011;35892;48.798;9.698;2022-08-24T07:16:18;4.70;;;3.40;;
45534;SDS011;35892;48.798;9.698;2022-08-24T07:18:45;4.65;;;3.28;;
45534;SDS011;35892;48.798;9.698;2022-08-24T07:21:16;3.28;;;2.95;;
45534;SDS011;35892;48.798;9.698;2022-08-24T07:23:45;3.33;;;2.90;;
45534;SDS011;35892;48.798;9.698;2022-08-24T07:26:20;3.58;;;2.90;;
45534;SDS011;35892;48.798;9.698;2022-08-24T07:28:53;3.22;;;2.88;;
45534;SDS011;35892;48.798;9.698;2022-08-24T07:31:34;5.00;;;3.30;;
45534;SDS011;35892;48.798;9.698;2022-08-24T07:34:03;4.38;;;2.97;;
45534;SDS011;35892;48.798;9.698;2022-08-24T07:36:32;4.40;;;2.70;;
45534;SDS011;35892;48.798;9.698;2022-08-24T07:39:00;3.95;;;2.72;;
45534;SDS011;35892;48.798;9.698;2022-08-24T07:41:28;7.22;;;2.90;;
45534;SDS011;35892;48.798;9.698;2022-08-24T07:44:19;3.97;;;2.67;;
45534;SDS011;35892;48.798;9.698;2022-08-24T07:46:46;3.13;;;2.83;;
45534;SDS011;35892;48.798;9.698;2022-08-24T07:49:15;3.08;;;2.03;;
45534;SDS011;35892;48.798;9.698;2022-08-24T07:52:02;3.22;;;2.10;;
45534;SDS011;35892;48.798;9.698;2022-08-24T07:54:29;4.35;;;2.38;;
45534;SDS011;35892;48.798;9.698;2022-08-24T07:56:59;4.55;;;2.40;;
45534;SDS011;35892;48.798;9.698;2022-08-24T07:59:29;3.83;;;2.10;;
45534;SDS011;35892;48.798;9.698;2022-08-24T08:01:56;4.25;;;2.60;;
45534;SDS011;35892;48.798;9.698;2022-08-24T08:04:26;2.60;;;2.10;;
45534;SDS011;35892;48.798;9.698;2022-08-24T08:06:57;4.18;;;2.00;;
45534;SDS011;35892;48.798;9.698;2022-08-24T08:09:27;2.67;;;1.70;;
45534;SDS011;35892;48.798;9.698;2022-08-24T08:11:54;4.18;;;1.88;;
45534;SDS011;35892;48.798;9.698;2022-08-24T08:14:21;2.75;;;1.75;;
45534;SDS011;35892;48.798;9.698;2022-08-24T08:16:50;2.00;;;1.60;;
45534;SDS011;35892;48.798;9.698;2022-08-24T08:19:17;3.10;;;2.45;;
45534;SDS011;35892;48.798;9.698;2022-08-24T08:21:47;3.55;;;2.65;;
45534;SDS011;35892;48.798;9.698;2022-08-24T08:24:51;4.45;;;2.03;;
45534;SDS011;35892;48.798;9.698;2022-08-24T08:27:18;2.28;;;1.65;;
45534;SDS011;35892;48.798;9.698;2022-08-24T08:29:46;4.32;;;1.45;;
45534;SDS011;35892;48.798;9.698;2022-08-24T08:32:14;3.47;;;1.80;;
45534;SDS011;35892;48.798;9.698;2022-08-24T08:34:42;3.10;;;2.10;;
45534;SDS011;35892;48.798;9.698;2022-08-24T08:37:10;3.03;;;1.70;;
45534;SDS011;35892;48.798;9.698;2022-08-24T08:39:40;1.92;;;1.38;;
45534;SDS011;35892;48.798;9.698;2022-08-24T08:42:23;1.60;;;1.40;;
45534;SDS011;35892;48.798;9.698;2022-08-24T08:45:20;3.47;;;1.90;;
45534;SDS011;35892;48.798;9.698;2022-08-24T09:29:11;2.72;;;1.58;;
45534;SDS011;35892;48.798;9.698;2022-08-24T09:40:01;2.63;;;1.40;;
45534;SDS011;35892;48.798;9.698;2022-08-24T09:42:51;1.40;;;1.30;;
45534;SDS011;35892;48.798;9.698;2022-08-24T10:01:39;2.67;;;1.05;;
45534;SDS011;35892;48.798;9.698;2022-08-24T10:04:58;1.88;;;1.02;;
45534;SDS011;35892;48.798;9.698;2022-08-24T10:07:59;1.30;;;1.08;;
45534;SDS011;35892;48.798;9.698;2022-08-24T10:11:06;0.93;;;0.90;;
45534;SDS011;35892;48.798;9.698;2022-08-24T10:26:05;1.42;;;1.13;;
45534;SDS011;35892;48.798;9.698;2022-08-24T10:31:47;1.45;;;1.20;;
45534;SDS011;35892;48.798;9.698;2022-08-24T10:42:47;1.90;;;1.67;;
45534;SDS011;35892;48.798;9.698;2022-08-24T10:53:56;1.20;;;1.08;;
45534;SDS011;35892;48.798;9.698;2022-08-24T10:56:33;1.60;;;1.25;;
45534;SDS011;35892;48.798;9.698;2022-08-24T11:06:41;2.58;;;1.40;;
45534;SDS011;35892;48.798;9.698;2022-08-24T11:09:41;1.30;;;1.20;;
45534;SDS011;35892;48.798;9.698;2022-08-24T11:12:30;2.78;;;1.35;;
45534;SDS011;35892;48.798;9.698;2022-08-24T11:17:53;1.60;;;1.05;;
45534;SDS011;35892;48.798;9.698;2022-08-24T11:25:40;2.03;;;1.10;;
45534;SDS011;35892;48.798;9.698;2022-08-24T11:30:46;1.98;;;1.33;;
45534;SDS011;35892;48.798;9.698;2022-08-24T11:36:16;1.70;;;1.17;;
45534;SDS011;35892;48.798;9.698;2022-08-24T11:38:46;1.60;;;1.20;;
45534;SDS011;35892;48.798;9.698;2022-08-24T11:41:27;2.22;;;1.10;;
45534;SDS011;35892;48.798;9.698;2022-08-24T11:44:05;1.38;;;1.27;;
45534;SDS011;35892;48.798;9.698;2022-08-24T11:49:28;2.35;;;1.20;;
45534;SDS011;35892;48.798;9.698;2022-08-24T11:52:08;2.25;;;1.30;;
45534;SDS011;35892;48.798;9.698;2022-08-24T11:54:50;1.40;;;1.25;;
45534;SDS011;35892;48.798;9.698;2022-08-24T11:57:46;1.75;;;1.20;;
45534;SDS011;35892;48.798;9.698;2022-08-24T12:00:18;1.70;;;1.45;;
45534;SDS011;35892;48.798;9.698;2022-08-24T12:08:17;3.33;;;1.10;;
45534;SDS011;35892;48.798;9.698;2022-08-24T12:13:51;1.38;;;1.23;;
45534;SDS011;35892;48.798;9.698;2022-08-24T12:19:48;2.40;;;1.70;;
45534;SDS011;35892;48.798;9.698;2022-08-24T12:21:58;2.08;;;1.60;;
45534;SDS011;35892;48.798;9.698;2022-08-24T12:24:37;2.20;;;1.48;;
45534;SDS011;35892;48.798;9.698;2022-08-24T12:27:15;2.33;;;1.60;;
45534;SDS011;35892;48.798;9.698;2022-08-24T12:37:54;2.28;;;1.90;;
45534;SDS011;35892;48.798;9.698;2022-08-24T12:40:35;1.65;;;1.40;;
45534;SDS011;35892;48.798;9.698;2022-08-24T12:43:06;2.17;;;1.30;;
45534;SDS011;35892;48.798;9.698;2022-08-24T12:45:45;2.90;;;1.40;;
45534;SDS011;35892;48.798;9.698;2022-08-24T13:04:55;2.30;;;1.58;;
45534;SDS011;35892;48.798;9.698;2022-08-24T13:07:28;1.95;;;1.70;;
45534;SDS011;35892;48.798;9.698;2022-08-24T13:10:15;1.83;;;1.65;;
45534;SDS011;35892;48.798;9.698;2022-08-24T13:13:13;1.45;;;1.30;;
45534;SDS011;35892;48.798;9.698;2022-08-24T13:33:44;1.48;;;1.33;;
45534;SDS011;35892;48.798;9.698;2022-08-24T13:41:52;1.30;;;1.20;;
45534;SDS011;35892;48.798;9.698;2022-08-24T13:58:30;2.05;;;1.60;;
45534;SDS011;35892;48.798;9.698;2022-08-24T14:15:15;1.83;;;1.25;;
45534;SDS011;35892;48.798;9.698;2022-08-24T14:20:42;2.00;;;1.25;;
45534;SDS011;35892;48.798;9.698;2022-08-24T14:25:49;1.77;;;0.90;;
45534;SDS011;35892;48.798;9.698;2022-08-24T14:28:40;2.05;;;1.17;;
45534;SDS011;35892;48.798;9.698;2022-08-24T14:31:21;1.85;;;1.13;;
45534;SDS011;35892;48.798;9.698;2022-08-24T14:34:05;1.73;;;1.20;;
45534;SDS011;35892;48.798;9.698;2022-08-24T14:39:54;2.67;;;1.20;;
45534;SDS011;35892;48.798;9.698;2022-08-24T14:42:36;2.45;;;1.38;;
45534;SDS011;35892;48.798;9.698;2022-08-24T14:45:22;1.58;;;1.02;;
45534;SDS011;35892;48.798;9.698;2022-08-24T15:01:41;1.88;;;1.23;;
45534;SDS011;35892;48.798;9.698;2022-08-24T15:09:49;1.35;;;1.15;;
45534;SDS011;35892;48.798;9.698;2022-08-24T15:20:42;1.20;;;1.05;;
45534;SDS011;35892;48.798;9.698;2022-08-24T15:23:19;1.60;;;1.27;;
45534;SDS011;35892;48.798;9.698;2022-08-24T15:25:57;4.13;;;1.35;;
45534;SDS011;35892;48.798;9.698;2022-08-24T15:28:31;1.38;;;1.10;;
45534;SDS011;35892;48.798;9.698;2022-08-24T15:31:03;1.88;;;1.40;;
45534;SDS011;35892;48.798;9.698;2022-08-24T15:33:49;1.15;;;1.05;;
45534;SDS011;35892;48.798;9.698;2022-08-24T15:36:23;1.48;;;1.20;;
45534;SDS011;35892;48.798;9.698;2022-08-24T15:38:50;1.33;;;1.10;;
45534;SDS011;35892;48.798;9.698;2022-08-24T15:44:02;1.35;;;1.08;;
45534;SDS011;35892;48.798;9.698;2022-08-24T15:46:53;1.02;;;0.93;;
45534;SDS011;35892;48.798;9.698;2022-08-24T15:49:26;1.33;;;0.93;;
45534;SDS011;35892;48.798;9.698;2022-08-24T15:52:03;1.83;;;0.95;;
45534;SDS011;35892;48.798;9.698;2022-08-24T15:54:42;2.45;;;1.00;;
45534;SDS011;35892;48.798;9.698;2022-08-24T15:59:53;1.20;;;1.00;;
45534;SDS011;35892;48.798;9.698;2022-08-24T16:02:31;1.15;;;1.00;;
45534;SDS011;35892;48.798;9.698;2022-08-24T16:10:49;2.33;;;0.98;;
45534;SDS011;35892;48.798;9.698;2022-08-24T16:13:26;1.90;;;1.27;;
45534;SDS011;35892;48.798;9.698;2022-08-24T16:21:24;1.25;;;1.10;;
45534;SDS011;35892;48.798;9.698;2022-08-24T16:37:33;1.48;;;1.10;;
45534;SDS011;35892;48.798;9.698;2022-08-24T16:40:04;1.90;;;1.00;;
45534;SDS011;35892;48.798;9.698;2022-08-24T16:42:35;3.47;;;1.08;;
45534;SDS011;35892;48.798;9.698;2022-08-24T16:45:05;1.38;;;1.17;;
45534;SDS011;35892;48.798;9.698;2022-08-24T16:47:35;1.42;;;1.05;;
45534;SDS011;35892;48.798;9.698;2022-08-24T16:50:04;1.13;;;1.02;;
45534;SDS011;35892;48.798;9.698;2022-08-24T16:52:36;1.73;;;1.00;;
45534;SDS011;35892;48.798;9.698;2022-08-24T16:55:03;1.88;;;1.13;;
45534;SDS011;35892;48.798;9.698;2022-08-24T16:57:31;1.27;;;1.05;;
45534;SDS011;35892;48.798;9.698;2022-08-24T17:00:07;5.82;;;1.40;;
45534;SDS011;35892;48.798;9.698;2022-08-24T17:02:40;1.60;;;1.20;;
45534;SDS011;35892;48.798;9.698;2022-08-24T17:05:08;1.77;;;1.30;;
45534;SDS011;35892;48.798;9.698;2022-08-24T17:07:37;1.52;;;1.42;;
45534;SDS011;35892;48.798;9.698;2022-08-24T17:10:05;1.30;;;1.20;;
45534;SDS011;35892;48.798;9.698;2022-08-24T17:15:06;1.63;;;1.30;;
45534;SDS011;35892;48.798;9.698;2022-08-24T17:17:34;2.53;;;1.30;;
45534;SDS011;35892;48.798;9.698;2022-08-24T17:20:05;1.63;;;1.30;;
45534;SDS011;35892;48.798;9.698;2022-08-24T17:22:36;3.78;;;1.52;;
45534;SDS011;35892;48.798;9.698;2022-08-24T17:25:03;2.47;;;1.70;;
45534;SDS011;35892;48.798;9.698;2022-08-24T17:27:33;2.53;;;1.20;;
45534;SDS011;35892;48.798;9.698;2022-08-24T17:30:01;2.53;;;1.35;;
45534;SDS011;35892;48.798;9.698;2022-08-24T17:32:32;2.28;;;1.50;;
45534;SDS011;35892;48.798;9.698;2022-08-24T17:35:01;3.10;;;1.58;;
45534;SDS011;35892;48.798;9.698;2022-08-24T17:37:29;1.95;;;1.42;;
45534;SDS011;35892;48.798;9.698;2022-08-24T17:39:58;2.40;;;1.30;;
45534;SDS011;35892;48.798;9.698;2022-08-24T17:42:26;2.90;;;1.50;;
45534;SDS011;35892;48.798;9.698;2022-08-24T17:45:13;3.80;;;1.58;;
45534;SDS011;35892;48.798;9.698;2022-08-24T17:47:40;1.88;;;1.50;;
45534;SDS011;35892;48.798;9.698;2022-08-24T17:50:12;3.20;;;1.70;;
45534;SDS011;35892;48.798;9.698;2022-08-24T17:52:45;3.88;;;1.88;;
45534;SDS011;35892;48.798;9.698;2022-08-24T17:55:13;4.32;;;1.98;;
45534;SDS011;35892;48.798;9.698;2022-08-24T17:57:50;2.75;;;1.88;;
45534;SDS011;35892;48.798;9.698;2022-08-24T18:00:17;1.95;;;1.75;;
45534;SDS011;35892;48.798;9.698;2022-08-24T18:02:44;2.55;;;2.00;;
45534;SDS011;35892;48.798;9.698;2022-08-24T18:05:11;2.95;;;2.00;;
45534;SDS011;35892;48.798;9.698;2022-08-24T18:07:40;2.20;;;1.48;;
45534;SDS011;35892;48.798;9.698;2022-08-24T18:10:26;3.15;;;2.85;;
45534;SDS011;35892;48.798;9.698;2022-08-24T18:12:55;3.92;;;2.92;;
45534;SDS011;35892;48.798;9.698;2022-08-24T18:15:23;2.47;;;1.95;;
45534;SDS011;35892;48.798;9.698;2022-08-24T18:18:04;2.85;;;2.10;;
45534;SDS011;35892;48.798;9.698;2022-08-24T18:20:37;4.80;;;2.60;;
45534;SDS011;35892;48.798;9.698;2022-08-24T18:23:07;2.92;;;1.92;;
45534;SDS011;35892;48.798;9.698;2022-08-24T18:25:42;2.10;;;1.70;;
45534;SDS011;35892;48.798;9.698;2022-08-24T18:28:14;3.35;;;1.83;;
45534;SDS011;35892;48.798;9.698;2022-08-24T18:30:44;3.78;;;1.90;;
45534;SDS011;35892;48.798;9.698;2022-08-24T18:33:13;3.00;;;1.70;;
45534;SDS011;35892;48.798;9.698;2022-08-24T18:35:40;1.60;;;1.50;;
45534;SDS011;35892;48.798;9.698;2022-08-24T18:38:13;3.90;;;1.70;;
45534;SDS011;35892;48.798;9.698;2022-08-24T18:43:18;3.72;;;1.85;;
45534;SDS011;35892;48.798;9.698;2022-08-24T18:45:50;4.72;;;1.65;;
45534;SDS011;35892;48.798;9.698;2022-08-24T18:48:36;2.08;;;1.60;;
45534;SDS011;35892;48.798;9.698;2022-08-24T18:51:03;3.22;;;1.88;;
45534;SDS011;35892;48.798;9.698;2022-08-24T18:53:30;1.80;;;1.60;;
45534;SDS011;35892;48.798;9.698;2022-08-24T18:56:01;2.05;;;1.63;;
45534;SDS011;35892;48.798;9.698;2022-08-24T18:58:37;2.97;;;1.55;;
45534;SDS011;35892;48.798;9.698;2022-08-24T19:01:04;2.55;;;2.00;;
45534;SDS011;35892;48.798;9.698;2022-08-24T19:03:32;2.20;;;1.70;;
45534;SDS011;35892;48.798;9.698;2022-08-24T19:05:59;4.05;;;2.35;;
45534;SDS011;35892;48.798;9.698;2022-08-24T19:08:34;1.70;;;1.60;;
45534;SDS011;35892;48.798;9.698;2022-08-24T19:11:02;1.75;;;1.65;;
45534;SDS011;35892;48.798;9.698;2022-08-24T19:13:31;4.43;;;2.67;;
45534;SDS011;35892;48.798;9.698;2022-08-24T19:16:02;2.35;;;1.77;;
45534;SDS011;35892;48.798;9.698;2022-08-24T19:18:29;4.28;;;2.10;;
45534;SDS011;35892;48.798;9.698;2022-08-24T19:20:56;2.95;;;2.42;;
45534;SDS011;35892;48.798;9.698;2022-08-24T19:23:31;2.97;;;1.98;;
45534;SDS011;35892;48.798;9.698;2022-08-24T19:26:00;2.05;;;1.85;;
45534;SDS011;35892;48.798;9.698;2022-08-24T19:28:29;2.38;;;1.80;;
45534;SDS011;35892;48.798;9.698;2022-08-24T19:30:57;3.85;;;2.22;;
45534;SDS011;35892;48.798;9.698;2022-08-24T19:33:40;2.67;;;2.42;;
45534;SDS011;35892;48.798;9.698;2022-08-24T19:38:38;2.42;;;2.20;;
45534;SDS011;35892;48.798;9.698;2022-08-24T19:41:06;2.47;;;1.92;;
45534;SDS011;35892;48.798;9.698;2022-08-24T19:43:37;4.35;;;2.58;;
45534;SDS011;35892;48.798;9.698;2022-08-24T19:46:26;2.40;;;2.10;;
45534;SDS011;35892;48.798;9.698;2022-08-24T19:48:56;3.05;;;2.22;;
45534;SDS011;35892;48.798;9.698;2022-08-24T19:51:23;3.10;;;2.17;;
45534;SDS011;35892;48.798;9.698;2022-08-24T19:53:50;3.50;;;2.20;;
45534;SDS011;35892;48.798;9.698;2022-08-24T19:56:17;3.15;;;2.10;;
45534;SDS011;35892;48.798;9.698;2022-08-24T19:58:49;2.35;;;2.05;;
45534;SDS011;35892;48.798;9.698;2022-08-24T20:01:21;2.55;;;2.28;;
45534;SDS011;35892;48.798;9.698;2022-08-24T20:03:52;2.97;;;2.17;;
45534;SDS011;35892;48.798;9.698;2022-08-24T20:08:51;3.58;;;2.35;;
45534;SDS011;35892;48.798;9.698;2022-08-24T20:11:20;4.03;;;2.55;;
45534;SDS011;35892;48.798;9.698;2022-08-24T20:13:50;2.90;;;2.53;;
45534;SDS011;35892;48.798;9.698;2022-08-24T20:16:21;2.63;;;2.42;;